Time;durP1;ratioP1;P1;durP2;ratioP2;P2;SDS_P1;SDS_P2;PMS_P1;PMS_P2;Temp;Humidity;BMP_temperature;BMP_pressure;BME280_temperature;BME280_humidity;BME280_pressure;Samples;Min_cycle;Max_cycle;Signal;HPM_P1;HPM_P2
2023/08/01 05:55:34;;;;;;;14.98;8.57;;;;;;;;;;10507232;28;20016;-84
2023/08/01 06:06:48;;;;;;;10.98;8.27;;;;;;;;;;10591921;28;20035;-84
2023/08/01 06:12:26;;;;;;;11.38;7.18;;;;;;;;;;10572888;28;20127;-84
2023/08/01 06:35:14;;;;;;;10.07;7.32;;;;;;;;;;10588635;28;20040;-84
2023/08/01 06:46:34;;;;;;;11.23;8.73;;;;;;;;;;10593558;28;20032;-84
2023/08/01 06:57:57;;;;;;;18.95;12.35;;;;;;;;;;10584797;28;20062;-84
2023/08/01 07:20:48;;;;;;;16.65;11.13;;;;;;;;;;10580077;28;20020;-84
2023/08/01 07:37:54;;;;;;;15.27;10.45;;;;;;;;;;10567662;28;20139;-83
2023/08/01 07:54:58;;;;;;;9.38;8.00;;;;;;;;;;10486114;28;20040;-83
2023/08/01 07:59:59;;;;;;;7.80;5.47;;;;;;;;;;10466147;28;20029;-85
2023/08/01 08:05:01;;;;;;;7.07;6.38;;;;;;;;;;10461939;28;20108;-84
2023/08/01 08:10:36;;;;;;;8.95;6.85;;;;;;;;;;10444778;28;20028;-85
2023/08/01 08:15:38;;;;;;;10.98;7.43;;;;;;;;;;10458787;28;20079;-84
2023/08/01 08:20:59;;;;;;;11.32;6.57;;;;;;;;;;10517240;28;20036;-86
2023/08/01 12:01:10;;;;;;;6.05;3.45;;;;;;;;;;10279671;23;20055;-82
2023/08/01 12:06:13;;;;;;;5.85;3.28;;;;;;;;;;10255068;29;20399;-85
2023/08/01 12:11:25;;;;;;;7.32;3.13;;;;;;;;;;10255541;28;20046;-84
2023/08/01 12:16:29;;;;;;;5.40;3.20;;;;;;;;;;10273594;29;20066;-84
2023/08/01 12:21:31;;;;;;;5.07;2.67;;;;;;;;;;10273763;28;20090;-84
2023/08/01 12:26:32;;;;;;;5.75;3.42;;;;;;;;;;10273618;29;20043;-85
2023/08/01 12:31:33;;;;;;;5.45;3.00;;;;;;;;;;10282247;28;20075;-84
2023/08/01 12:36:34;;;;;;;4.90;2.45;;;;;;;;;;10271205;29;20126;-84
2023/08/01 12:41:36;;;;;;;4.85;2.47;;;;;;;;;;10273548;28;20062;-85
2023/08/01 12:46:39;;;;;;;4.63;2.17;;;;;;;;;;10279277;29;20051;-83
2023/08/01 12:51:40;;;;;;;5.72;2.80;;;;;;;;;;10274314;28;20031;-84
2023/08/01 12:56:41;;;;;;;4.88;2.15;;;;;;;;;;10272264;28;20043;-85
2023/08/01 13:01:42;;;;;;;5.45;2.92;;;;;;;;;;10272034;28;20050;-85
2023/08/01 13:06:44;;;;;;;5.45;3.53;;;;;;;;;;10274545;29;20046;-81
2023/08/01 13:11:45;;;;;;;8.73;6.03;;;;;;;;;;10267963;28;20035;-83
2023/08/01 13:16:47;;;;;;;7.18;2.90;;;;;;;;;;10268907;29;20074;-83
2023/08/01 13:21:48;;;;;;;5.05;2.67;;;;;;;;;;10269148;28;20046;-81
2023/08/01 13:26:49;;;;;;;8.32;2.53;;;;;;;;;;10272208;29;20076;-83
2023/08/01 13:31:51;;;;;;;5.72;3.30;;;;;;;;;;10277261;28;20028;-84
2023/08/01 13:36:53;;;;;;;4.90;2.50;;;;;;;;;;10289009;29;20046;-82
2023/08/01 13:41:56;;;;;;;6.60;2.40;;;;;;;;;;10283350;28;20070;-83
2023/08/01 13:46:58;;;;;;;4.15;1.88;;;;;;;;;;10268347;29;20055;-83
2023/08/01 13:51:59;;;;;;;4.82;2.22;;;;;;;;;;10271704;28;20031;-82
2023/08/01 13:57:01;;;;;;;3.78;1.95;;;;;;;;;;10267366;29;20386;-82
2023/08/01 14:02:03;;;;;;;4.22;2.20;;;;;;;;;;10266443;28;20130;-82
2023/08/01 14:07:04;;;;;;;5.90;1.80;;;;;;;;;;10267774;28;20045;-81
2023/08/01 14:12:05;;;;;;;3.92;1.90;;;;;;;;;;10273676;28;20027;-82
2023/08/01 14:17:06;;;;;;;5.68;1.95;;;;;;;;;;10295096;29;20035;-82
2023/08/01 14:22:08;;;;;;;3.88;2.42;;;;;;;;;;10288545;28;20070;-83
2023/08/01 14:27:09;;;;;;;3.17;1.88;;;;;;;;;;10275098;29;20047;-83
2023/08/01 14:32:16;;;;;;;4.95;2.08;;;;;;;;;;10272208;28;20042;-85
2023/08/01 14:37:17;;;;;;;4.03;1.92;;;;;;;;;;10278015;29;20031;-84
2023/08/01 14:42:18;;;;;;;3.55;1.65;;;;;;;;;;10277690;28;20038;-83
2023/08/01 14:47:19;;;;;;;4.35;1.80;;;;;;;;;;10299717;29;20034;-83
2023/08/01 14:52:21;;;;;;;5.68;2.22;;;;;;;;;;10286914;28;20139;-82
2023/08/01 14:57:22;;;;;;;4.03;1.98;;;;;;;;;;10277173;29;20045;-83
2023/08/01 15:02:23;;;;;;;4.93;1.90;;;;;;;;;;10276984;28;20055;-84
2023/08/01 15:07:26;;;;;;;3.78;1.77;;;;;;;;;;10275718;29;20047;-83
2023/08/01 15:12:27;;;;;;;5.00;1.52;;;;;;;;;;10275677;28;20126;-83
2023/08/01 15:17:28;;;;;;;4.45;1.80;;;;;;;;;;10272448;28;20043;-82
2023/08/01 15:22:29;;;;;;;5.15;1.90;;;;;;;;;;10271519;28;20134;-81
2023/08/01 15:27:30;;;;;;;4.95;1.73;;;;;;;;;;10273466;29;20039;-84
2023/08/01 15:32:31;;;;;;;5.60;2.08;;;;;;;;;;10273616;28;20114;-82
2023/08/01 15:37:32;;;;;;;5.13;1.88;;;;;;;;;;10272869;29;20097;-82
2023/08/01 15:42:33;;;;;;;3.75;1.70;;;;;;;;;;10272575;28;20540;-84
2023/08/01 15:47:34;;;;;;;3.58;1.80;;;;;;;;;;10273818;29;20043;-83
2023/08/01 15:52:35;;;;;;;4.43;1.67;;;;;;;;;;10274994;28;20122;-84
2023/08/01 15:57:36;;;;;;;3.60;1.50;;;;;;;;;;10306221;28;20031;-85
2023/08/01 16:02:37;;;;;;;4.47;1.50;;;;;;;;;;10281997;28;20047;-84
2023/08/01 16:07:38;;;;;;;5.32;2.03;;;;;;;;;;10297271;28;20035;-84
2023/08/01 16:12:39;;;;;;;3.65;1.73;;;;;;;;;;10278981;28;20038;-84
2023/08/01 16:17:40;;;;;;;4.80;1.90;;;;;;;;;;10272895;29;20039;-83
2023/08/01 16:22:42;;;;;;;3.22;1.73;;;;;;;;;;10276004;28;20042;-85
2023/08/01 16:27:43;;;;;;;2.85;1.80;;;;;;;;;;10272574;29;20043;-86
2023/08/01 16:32:50;;;;;;;3.92;1.55;;;;;;;;;;10272502;28;20114;-86
2023/08/01 16:37:51;;;;;;;4.63;1.80;;;;;;;;;;10272461;28;20042;-84
2023/08/01 16:42:52;;;;;;;3.65;1.80;;;;;;;;;;10273136;28;20087;-86
2023/08/01 16:47:53;;;;;;;3.63;1.60;;;;;;;;;;10273091;29;20039;-87
2023/08/01 16:52:54;;;;;;;4.53;1.40;;;;;;;;;;10295505;28;20012;-85
2023/08/01 16:57:55;;;;;;;3.85;2.08;;;;;;;;;;10278395;29;20042;-87
2023/08/01 17:02:56;;;;;;;4.40;1.67;;;;;;;;;;10269851;28;20054;-86
2023/08/01 17:07:58;;;;;;;6.13;1.80;;;;;;;;;;10269737;29;20059;-86
2023/08/01 17:12:59;;;;;;;2.47;1.30;;;;;;;;;;10274597;28;20163;-87
2023/08/01 17:18:00;;;;;;;3.95;1.60;;;;;;;;;;10274738;29;20035;-86
2023/08/01 17:23:01;;;;;;;3.95;1.80;;;;;;;;;;10276838;28;20046;-87
2023/08/01 17:28:02;;;;;;;3.50;1.65;;;;;;;;;;10257435;29;20039;-86
2023/08/01 17:33:03;;;;;;;4.20;1.60;;;;;;;;;;10271323;28;20102;-86
2023/08/01 17:38:04;;;;;;;5.38;1.70;;;;;;;;;;10273933;29;20039;-87
2023/08/01 17:43:05;;;;;;;3.75;1.75;;;;;;;;;;10269075;28;20457;-86
2023/08/01 17:48:07;;;;;;;3.22;1.13;;;;;;;;;;10270875;29;20042;-87
2023/08/01 17:53:08;;;;;;;4.38;1.10;;;;;;;;;;10282685;28;20062;-84
2023/08/01 17:58:09;;;;;;;5.40;1.33;;;;;;;;;;10291757;29;20034;-86
2023/08/01 18:03:25;;;;;;;3.95;1.30;;;;;;;;;;10279734;23;20135;-87
2023/08/01 18:08:53;;;;;;;3.47;1.30;;;;;;;;;;10238903;29;20110;-87
2023/08/01 18:14:01;;;;;;;3.55;1.25;;;;;;;;;;10270917;28;20039;-86
2023/08/01 18:25:24;;;;;;;3.72;1.48;;;;;;;;;;10294952;28;20119;-86
2023/08/01 18:36:06;;;;;;;;;;;;;;;;;;10295810;28;20026;-86
2023/08/01 18:41:14;;;;;;;3.95;1.30;;;;;;;;;;10279605;28;19965;-85
2023/08/01 18:46:53;;;;;;;3.30;1.23;;;;;;;;;;10252378;29;20094;-84
2023/08/01 18:52:16;;;;;;;3.88;1.73;;;;;;;;;;10277317;28;20035;-85
2023/08/01 19:03:24;;;;;;;3.28;1.40;;;;;;;;;;10306484;28;20091;-85
